createdAt,value
2018-02-25T00:00:38.920Z,1033.74
2018-02-25T00:01:48.018Z,1033.72
2018-02-25T00:02:56.841Z,1033.75
2018-02-25T00:04:05.665Z,1033.72
2018-02-25T00:05:14.540Z,1033.65
2018-02-25T00:06:23.361Z,1033.73
2018-02-25T00:07:32.183Z,1033.69
2018-02-25T00:08:41.009Z,1033.73
2018-02-25T00:09:50.380Z,1033.73
2018-02-25T00:10:59.758Z,1033.73
2018-02-25T00:12:08.578Z,1033.72
2018-02-25T00:13:17.400Z,1033.71
2018-02-25T00:14:26.223Z,1033.75
2018-02-25T00:15:35.046Z,1033.71
2018-02-25T00:16:43.970Z,1033.71
2018-02-25T00:17:52.792Z,1033.75
2018-02-25T00:19:01.613Z,1033.71
2018-02-25T00:20:10.435Z,1033.72
2018-02-25T00:21:19.259Z,1033.75
2018-02-25T00:22:28.229Z,1033.76
2018-02-25T00:23:37.051Z,1033.74
2018-02-25T00:24:45.888Z,1033.78
2018-02-25T00:25:55.291Z,1033.76
2018-02-25T00:27:04.114Z,1033.75
2018-02-25T00:28:12.935Z,1033.73
2018-02-25T00:29:21.756Z,1033.74
2018-02-25T00:30:30.579Z,1033.77
2018-02-25T00:31:39.400Z,1033.75
2018-02-25T00:32:48.224Z,1033.7
2018-02-25T00:33:57.195Z,1033.7
2018-02-25T00:35:06.018Z,1033.74
2018-02-25T00:36:14.841Z,1033.73
2018-02-25T00:37:23.664Z,1033.76
2018-02-25T00:38:32.770Z,1033.73
2018-02-25T00:39:41.740Z,1033.76
2018-02-25T00:40:50.561Z,1033.76
2018-02-25T00:41:59.382Z,1033.7
2018-02-25T00:43:08.205Z,1033.75
2018-02-25T00:44:17.028Z,1033.77
2018-02-25T00:45:26.392Z,1033.72
2018-02-25T00:46:35.208Z,1033.8
2018-02-25T00:47:44.032Z,1033.74
2018-02-25T00:48:52.854Z,1033.71
2018-02-25T00:50:01.678Z,1033.74
2018-02-25T00:51:10.599Z,1033.78
2018-02-25T00:52:19.421Z,1033.78
2018-02-25T00:53:28.243Z,1033.74
2018-02-25T00:54:37.066Z,1033.7
2018-02-25T00:55:45.885Z,1033.77
2018-02-25T00:56:54.804Z,1033.72
2018-02-25T00:58:03.627Z,1033.81
2018-02-25T00:59:12.450Z,1033.74
2018-02-25T01:00:21.546Z,1033.76
2018-02-25T01:01:30.368Z,1033.77
2018-02-25T01:02:39.189Z,1033.76
2018-02-25T01:03:48.012Z,1033.74
2018-02-25T01:04:56.836Z,1033.71
2018-02-25T01:06:05.657Z,1033.72
2018-02-25T01:07:14.478Z,1033.78
2018-02-25T01:08:23.451Z,1033.77
2018-02-25T01:09:32.274Z,1033.76
2018-02-25T01:10:41.094Z,1033.73
2018-02-25T01:11:49.918Z,1033.77
2018-02-25T01:12:59.018Z,1033.75
2018-02-25T01:14:07.840Z,1033.76
2018-02-25T01:15:16.921Z,1033.75
2018-02-25T01:16:25.743Z,1033.76
2018-02-25T01:17:34.563Z,1033.74
2018-02-25T01:18:43.384Z,1033.72
2018-02-25T01:19:52.360Z,1033.7
2018-02-25T01:21:01.181Z,1033.76
2018-02-25T01:22:10.004Z,1033.77
2018-02-25T01:23:18.821Z,1033.79
2018-02-25T01:24:27.646Z,1033.77
2018-02-25T01:25:36.893Z,1033.8
2018-02-25T01:26:45.991Z,1033.77
2018-02-25T01:27:54.812Z,1033.79
2018-02-25T01:29:03.636Z,1033.77
2018-02-25T01:30:12.457Z,1033.81
2018-02-25T01:31:21.378Z,1033.81
2018-02-25T01:32:30.199Z,1033.81
2018-02-25T01:33:39.020Z,1033.82
2018-02-25T01:34:48.121Z,1033.78
2018-02-25T01:35:56.944Z,1033.77
2018-02-25T01:37:05.915Z,1033.75
2018-02-25T01:38:14.735Z,1033.79
2018-02-25T01:39:24.116Z,1033.79
2018-02-25T01:40:32.935Z,1033.74
2018-02-25T01:41:41.754Z,1033.73
2018-02-25T01:42:50.576Z,1033.71
2018-02-25T01:43:59.398Z,1033.68
2018-02-25T01:45:08.218Z,1033.67
2018-02-25T01:46:17.040Z,1033.67
2018-02-25T01:47:26.144Z,1033.66
2018-02-25T01:48:34.965Z,1033.66
2018-02-25T01:49:43.784Z,1033.68
2018-02-25T01:50:52.608Z,1033.67
2018-02-25T01:52:01.427Z,1033.74
2018-02-25T01:53:10.248Z,1033.77
2018-02-25T01:54:19.120Z,1033.78
2018-02-25T01:55:28.215Z,1033.81
2018-02-25T01:56:37.040Z,1033.83
2018-02-25T01:57:45.857Z,1033.82
2018-02-25T01:58:54.679Z,1033.84
2018-02-25T02:00:03.501Z,1033.78
2018-02-25T02:01:12.322Z,1033.82
2018-02-25T02:02:21.147Z,1033.82
2018-02-25T02:03:30.248Z,1033.84
2018-02-25T02:04:39.068Z,1033.81
2018-02-25T02:05:48.189Z,1033.83
2018-02-25T02:06:57.009Z,1033.83
2018-02-25T02:08:05.832Z,1033.83
2018-02-25T02:09:14.652Z,1033.88
2018-02-25T02:10:23.475Z,1033.85
2018-02-25T02:11:32.347Z,1033.87
2018-02-25T02:12:41.169Z,1033.84
2018-02-25T02:13:49.989Z,1033.87
2018-02-25T02:14:58.814Z,1033.78
2018-02-25T02:16:07.631Z,1033.82
2018-02-25T02:17:16.733Z,1033.83
2018-02-25T02:18:25.553Z,1033.8
2018-02-25T02:19:34.373Z,1033.84
2018-02-25T02:20:43.191Z,1033.85
2018-02-25T02:21:52.290Z,1033.88
2018-02-25T02:23:01.264Z,1033.83
2018-02-25T02:24:10.082Z,1033.88
2018-02-25T02:25:18.902Z,1033.85
2018-02-25T02:26:27.726Z,1033.85
2018-02-25T02:27:36.547Z,1033.85
2018-02-25T02:28:45.368Z,1033.84
2018-02-25T02:29:54.189Z,1033.86
2018-02-25T02:31:03.287Z,1033.84
2018-02-25T02:32:12.110Z,1033.81
2018-02-25T02:33:21.209Z,1033.84
2018-02-25T02:34:30.130Z,1033.89
2018-02-25T02:35:39.246Z,1033.87
2018-02-25T02:36:48.066Z,1033.9
2018-02-25T02:37:56.888Z,1033.94
2018-02-25T02:39:05.707Z,1033.9
2018-02-25T02:40:14.532Z,1033.93
2018-02-25T02:41:23.355Z,1033.95
2018-02-25T02:42:32.179Z,1033.95
2018-02-25T02:43:41.276Z,1033.94
2018-02-25T02:44:50.098Z,1033.95
2018-02-25T02:45:58.919Z,1033.9
2018-02-25T02:47:07.737Z,1033.88
2018-02-25T02:48:16.558Z,1033.92
2018-02-25T02:49:25.396Z,1033.89
2018-02-25T02:50:34.199Z,1033.89
2018-02-25T02:51:43.297Z,1033.88
2018-02-25T02:52:52.132Z,1033.91
2018-02-25T02:54:01.232Z,1033.88
2018-02-25T02:55:10.064Z,1033.85
2018-02-25T02:56:18.872Z,1033.84
2018-02-25T02:57:27.792Z,1033.85
2018-02-25T02:58:36.611Z,1033.8
2018-02-25T02:59:45.431Z,1033.86
2018-02-25T03:00:54.254Z,1033.85
2018-02-25T03:02:03.349Z,1033.93
2018-02-25T03:03:12.171Z,1033.89
2018-02-25T03:04:20.997Z,1033.92
2018-02-25T03:05:29.816Z,1033.94
2018-02-25T03:06:38.639Z,1033.91
2018-02-25T03:07:47.461Z,1033.95
2018-02-25T03:08:56.432Z,1033.96
2018-02-25T03:10:05.254Z,1033.92
2018-02-25T03:11:14.076Z,1033.97
2018-02-25T03:12:22.896Z,1033.98
2018-02-25T03:13:31.716Z,1033.95
2018-02-25T03:14:40.965Z,1033.93
2018-02-25T03:15:49.787Z,1033.98
2018-02-25T03:16:58.608Z,1033.97
2018-02-25T03:18:07.704Z,1033.99
2018-02-25T03:19:16.531Z,1033.99
2018-02-25T03:20:25.719Z,1034.03
2018-02-25T03:21:34.541Z,1034.03
2018-02-25T03:22:43.360Z,1034.1
2018-02-25T03:23:52.182Z,1034.02
2018-02-25T03:25:01.000Z,1034.04
2018-02-25T03:26:10.122Z,1034.05
2018-02-25T03:27:18.941Z,1034.01
2018-02-25T03:28:27.761Z,1034.03
2018-02-25T03:29:36.588Z,1034.02
2018-02-25T03:30:45.407Z,1034.02
2018-02-25T03:31:54.380Z,1033.99
2018-02-25T03:33:03.199Z,1033.99
2018-02-25T03:34:12.019Z,1034.01
2018-02-25T03:35:20.839Z,1033.98
2018-02-25T03:36:29.660Z,1033.99
2018-02-25T03:37:38.757Z,1033.97
2018-02-25T03:38:47.577Z,1033.96
2018-02-25T03:39:56.399Z,1033.93
2018-02-25T03:41:05.219Z,1034
2018-02-25T03:42:14.140Z,1033.95
2018-02-25T03:43:23.058Z,1033.92
2018-02-25T03:44:31.879Z,1033.94
2018-02-25T03:45:40.980Z,1033.94
2018-02-25T03:46:49.802Z,1033.95
2018-02-25T03:47:58.626Z,1033.92
2018-02-25T03:49:07.602Z,1033.93
2018-02-25T03:50:16.418Z,1033.94
2018-02-25T03:51:25.240Z,1033.91
2018-02-25T03:52:34.064Z,1033.91
2018-02-25T03:53:42.884Z,1033.95
2018-02-25T03:54:51.704Z,1033.88
2018-02-25T03:56:00.526Z,1033.91
2018-02-25T03:57:09.907Z,1033.89
2018-02-25T03:58:18.731Z,1033.89
2018-02-25T03:59:27.555Z,1033.86
2018-02-25T04:00:36.798Z,1033.88
2018-02-25T04:01:45.617Z,1033.89
2018-02-25T04:02:54.436Z,1033.93
2018-02-25T04:04:03.260Z,1033.94
2018-02-25T04:05:12.078Z,1033.93
2018-02-25T04:06:20.948Z,1033.94
2018-02-25T04:07:29.769Z,1033.92
2018-02-25T04:08:38.869Z,1033.94
2018-02-25T04:09:47.690Z,1033.94
2018-02-25T04:10:56.509Z,1033.96
2018-02-25T04:12:05.330Z,1033.91
2018-02-25T04:13:14.151Z,1033.9
2018-02-25T04:14:22.975Z,1033.94
2018-02-25T04:15:31.794Z,1033.9
2018-02-25T04:16:40.616Z,1033.91
2018-02-25T04:17:49.436Z,1033.92
2018-02-25T04:18:58.255Z,1033.92
2018-02-25T04:20:07.076Z,1033.9
2018-02-25T04:21:15.897Z,1033.92
2018-02-25T04:22:24.717Z,1033.94
2018-02-25T04:23:33.819Z,1033.89
2018-02-25T04:24:42.639Z,1033.93
2018-02-25T04:25:51.459Z,1033.93
2018-02-25T04:27:00.283Z,1033.97
2018-02-25T04:28:09.379Z,1033.95
2018-02-25T04:29:18.246Z,1033.97
2018-02-25T04:30:27.067Z,1033.99
2018-02-25T04:31:35.887Z,1033.92
2018-02-25T04:32:44.708Z,1033.92
2018-02-25T04:33:53.528Z,1033.94
2018-02-25T04:35:02.500Z,1033.94
2018-02-25T04:36:11.317Z,1033.89
2018-02-25T04:37:20.138Z,1033.91
2018-02-25T04:38:28.958Z,1033.92
2018-02-25T04:39:37.778Z,1033.94
2018-02-25T04:40:46.598Z,1033.9
2018-02-25T04:41:55.417Z,1033.94
2018-02-25T04:43:04.240Z,1033.94
2018-02-25T04:44:13.060Z,1033.91
2018-02-25T04:45:21.881Z,1033.94
2018-02-25T04:46:30.754Z,1033.93
2018-02-25T04:47:39.576Z,1033.94
2018-02-25T04:48:48.396Z,1033.97
2018-02-25T04:49:57.218Z,1034
2018-02-25T04:51:06.039Z,1033.97
2018-02-25T04:52:15.010Z,1033.97
2018-02-25T04:53:23.830Z,1033.93
2018-02-25T04:54:32.649Z,1033.94
2018-02-25T04:55:41.469Z,1033.95
2018-02-25T04:56:50.293Z,1033.99
2018-02-25T04:57:59.260Z,1033.96
2018-02-25T04:59:08.084Z,1034
2018-02-25T05:00:16.900Z,1034.01
2018-02-25T05:01:25.721Z,1034
2018-02-25T05:02:34.540Z,1033.98
2018-02-25T05:03:43.939Z,1034.02
2018-02-25T05:04:52.757Z,1034.02
2018-02-25T05:06:01.855Z,1034.05
2018-02-25T05:07:10.677Z,1034.09
2018-02-25T05:08:19.495Z,1034.03
2018-02-25T05:09:28.316Z,1034.01
2018-02-25T05:10:37.136Z,1034.03
2018-02-25T05:11:45.957Z,1034.05
2018-02-25T05:12:54.780Z,1034.06
2018-02-25T05:14:03.602Z,1034
2018-02-25T05:15:12.519Z,1034.02
2018-02-25T05:16:21.341Z,1033.94
2018-02-25T05:17:30.436Z,1033.99
2018-02-25T05:18:39.256Z,1033.98
2018-02-25T05:19:48.077Z,1034.01
2018-02-25T05:20:56.896Z,1033.97
2018-02-25T05:22:05.716Z,1033.94
2018-02-25T05:23:14.535Z,1033.91
2018-02-25T05:24:23.357Z,1033.94
2018-02-25T05:25:32.178Z,1033.92
2018-02-25T05:26:41.150Z,1033.93
2018-02-25T05:27:49.969Z,1033.92
2018-02-25T05:28:58.787Z,1033.99
2018-02-25T05:30:07.607Z,1034.02
2018-02-25T05:31:16.707Z,1034.07
2018-02-25T05:32:25.870Z,1034.07
2018-02-25T05:33:34.646Z,1034.06
2018-02-25T05:34:43.466Z,1034.1
2018-02-25T05:35:52.288Z,1034.1
2018-02-25T05:37:01.109Z,1034.16
2018-02-25T05:38:09.980Z,1034.14
2018-02-25T05:39:18.799Z,1034.11
2018-02-25T05:40:27.618Z,1034.15
2018-02-25T05:41:36.442Z,1034.2
2018-02-25T05:42:45.263Z,1034.19
2018-02-25T05:43:54.233Z,1034.18
2018-02-25T05:45:03.330Z,1034.19
2018-02-25T05:46:12.150Z,1034.16
2018-02-25T05:47:20.972Z,1034.19
2018-02-25T05:48:29.790Z,1034.18
2018-02-25T05:49:38.612Z,1034.25
2018-02-25T05:50:47.432Z,1034.21
2018-02-25T05:51:56.254Z,1034.28
2018-02-25T05:53:05.070Z,1034.28
2018-02-25T05:54:13.888Z,1034.28
2018-02-25T05:55:22.859Z,1034.28
2018-02-25T05:56:31.680Z,1034.3
2018-02-25T05:57:40.499Z,1034.3
2018-02-25T05:58:49.319Z,1034.38
2018-02-25T05:59:58.138Z,1034.4
2018-02-25T06:01:07.215Z,1034.44
2018-02-25T06:02:16.028Z,1034.44
2018-02-25T06:03:25.122Z,1034.42
2018-02-25T06:04:34.496Z,1034.45
2018-02-25T06:05:43.317Z,1034.45
2018-02-25T06:06:52.137Z,1034.48
2018-02-25T06:08:00.955Z,1034.46
2018-02-25T06:09:09.775Z,1034.5
2018-02-25T06:10:18.595Z,1034.52
2018-02-25T06:11:27.419Z,1034.51
2018-02-25T06:12:36.242Z,1034.53
2018-02-25T06:13:45.058Z,1034.49
2018-02-25T06:14:53.878Z,1034.5
2018-02-25T06:16:02.696Z,1034.47
2018-02-25T06:17:11.517Z,1034.47
2018-02-25T06:18:20.386Z,1034.47
2018-02-25T06:19:29.205Z,1034.48
2018-02-25T06:20:38.026Z,1034.48
2018-02-25T06:21:47.122Z,1034.43
2018-02-25T06:22:55.943Z,1034.54
2018-02-25T06:24:05.614Z,1034.47
2018-02-25T06:25:14.991Z,1034.5
2018-02-25T06:26:23.818Z,1034.48
2018-02-25T06:27:32.642Z,1034.51
2018-02-25T06:28:41.459Z,1034.48
2018-02-25T06:29:50.427Z,1034.51
2018-02-25T06:30:59.246Z,1034.49
2018-02-25T06:32:08.066Z,1034.44
2018-02-25T06:33:16.888Z,1034.43
2018-02-25T06:34:25.707Z,1034.43
2018-02-25T06:35:34.677Z,1034.44
2018-02-25T06:36:43.498Z,1034.43
2018-02-25T06:37:52.318Z,1034.43
2018-02-25T06:39:01.136Z,1034.44
2018-02-25T06:40:10.230Z,1034.48
2018-02-25T06:41:19.101Z,1034.4
2018-02-25T06:42:27.923Z,1034.44
2018-02-25T06:43:36.747Z,1034.4
2018-02-25T06:44:45.570Z,1034.42
2018-02-25T06:45:54.665Z,1034.4
2018-02-25T06:47:03.635Z,1034.38
2018-02-25T06:48:12.456Z,1034.36
2018-02-25T06:49:21.274Z,1034.35
2018-02-25T06:50:30.095Z,1034.35
2018-02-25T06:51:39.188Z,1034.34
2018-02-25T06:52:48.015Z,1034.38
2018-02-25T06:53:57.109Z,1034.36
2018-02-25T06:55:05.932Z,1034.35
2018-02-25T06:56:14.751Z,1034.42
2018-02-25T06:57:23.572Z,1034.41
2018-02-25T06:58:32.497Z,1034.43
2018-02-25T06:59:41.332Z,1034.47
2018-02-25T07:00:50.429Z,1034.45
2018-02-25T07:01:59.248Z,1034.46
2018-02-25T07:03:08.068Z,1034.45
2018-02-25T07:04:16.991Z,1034.42
2018-02-25T07:05:26.085Z,1034.42
2018-02-25T07:06:34.910Z,1034.46
2018-02-25T07:07:43.730Z,1034.44
2018-02-25T07:08:52.548Z,1034.48
2018-02-25T07:10:01.371Z,1034.45
2018-02-25T07:11:10.195Z,1034.44
2018-02-25T07:12:19.013Z,1034.48
2018-02-25T07:13:27.833Z,1034.52
2018-02-25T07:14:36.654Z,1034.53
2018-02-25T07:15:45.674Z,1034.54
2018-02-25T07:16:54.496Z,1034.53
2018-02-25T07:18:03.315Z,1034.56
2018-02-25T07:19:12.145Z,1034.61
2018-02-25T07:20:20.958Z,1034.61
2018-02-25T07:21:29.781Z,1034.63
2018-02-25T07:22:38.881Z,1034.63
2018-02-25T07:23:47.706Z,1034.66
2018-02-25T07:24:56.525Z,1034.64
2018-02-25T07:26:05.347Z,1034.61
2018-02-25T07:27:14.169Z,1034.62
2018-02-25T07:28:23.263Z,1034.67
2018-02-25T07:29:32.358Z,1034.67
2018-02-25T07:30:41.183Z,1034.66
2018-02-25T07:31:50.278Z,1034.71
2018-02-25T07:32:59.100Z,1034.7
2018-02-25T07:34:08.194Z,1034.69
2018-02-25T07:35:17.018Z,1034.69
2018-02-25T07:36:26.119Z,1034.73
2018-02-25T07:37:34.939Z,1034.72
2018-02-25T07:38:43.764Z,1034.76
2018-02-25T07:39:52.590Z,1034.71
2018-02-25T07:41:01.683Z,1034.73
2018-02-25T07:42:10.505Z,1034.77
2018-02-25T07:43:19.325Z,1034.77
2018-02-25T07:44:28.303Z,1034.74
2018-02-25T07:45:37.399Z,1034.81
2018-02-25T07:46:46.222Z,1034.78
2018-02-25T07:47:55.042Z,1034.85
2018-02-25T07:49:04.138Z,1034.81
2018-02-25T07:50:13.013Z,1034.84
2018-02-25T07:51:21.832Z,1034.8
2018-02-25T07:52:30.652Z,1034.8
2018-02-25T07:53:39.474Z,1034.83
2018-02-25T07:54:48.297Z,1034.83
2018-02-25T07:55:57.174Z,1034.83
2018-02-25T07:57:05.944Z,1034.77
2018-02-25T07:58:14.766Z,1034.77
2018-02-25T07:59:23.587Z,1034.84
2018-02-25T08:00:32.411Z,1034.82
2018-02-25T08:01:41.534Z,1034.85
2018-02-25T08:02:50.353Z,1034.84
2018-02-25T08:03:59.461Z,1034.89
2018-02-25T08:05:08.284Z,1034.87
2018-02-25T08:06:17.104Z,1034.93
2018-02-25T08:07:26.324Z,1034.93
2018-02-25T08:08:35.145Z,1034.91
2018-02-25T08:09:43.965Z,1034.91
2018-02-25T08:10:52.787Z,1034.91
2018-02-25T08:12:01.893Z,1034.88
2018-02-25T08:13:10.718Z,1034.92
2018-02-25T08:14:19.542Z,1034.85
2018-02-25T08:15:28.364Z,1034.9
2018-02-25T08:16:37.187Z,1034.88
2018-02-25T08:17:46.007Z,1034.86
2018-02-25T08:18:54.829Z,1034.78
2018-02-25T08:20:03.652Z,1034.81
2018-02-25T08:21:12.749Z,1034.86
2018-02-25T08:22:21.568Z,1034.86
2018-02-25T08:23:30.389Z,1034.86
2018-02-25T08:24:39.311Z,1034.85
2018-02-25T08:25:48.411Z,1034.87
2018-02-25T08:26:57.230Z,1034.87
2018-02-25T08:28:06.052Z,1034.91
2018-02-25T08:29:15.157Z,1034.86
2018-02-25T08:30:24.080Z,1034.91
2018-02-25T08:31:32.902Z,1034.9
2018-02-25T08:32:42.009Z,1034.87
2018-02-25T08:33:50.836Z,1034.88
2018-02-25T08:34:59.660Z,1034.85
2018-02-25T08:36:09.041Z,1034.87
2018-02-25T08:37:17.864Z,1034.85
2018-02-25T08:38:26.686Z,1034.85
2018-02-25T08:39:35.508Z,1034.9
2018-02-25T08:40:44.331Z,1034.87
2018-02-25T08:41:53.305Z,1034.82
2018-02-25T08:43:02.130Z,1034.82
2018-02-25T08:44:10.953Z,1034.82
2018-02-25T08:45:19.774Z,1034.81
2018-02-25T08:46:28.598Z,1034.85
2018-02-25T08:47:37.891Z,1034.82
2018-02-25T08:48:46.715Z,1034.83
2018-02-25T08:49:55.537Z,1034.86
2018-02-25T08:51:04.358Z,1034.86
2018-02-25T08:52:13.182Z,1034.93
2018-02-25T08:53:22.005Z,1034.96
2018-02-25T08:54:30.830Z,1034.9
2018-02-25T08:55:39.656Z,1034.91
2018-02-25T08:56:48.475Z,1035
2018-02-25T08:57:57.297Z,1035.02
2018-02-25T08:59:06.219Z,1035
2018-02-25T09:00:15.047Z,1035.02
2018-02-25T09:01:23.877Z,1035.04
2018-02-25T09:02:32.702Z,1034.97
2018-02-25T09:03:41.525Z,1034.99
2018-02-25T09:04:50.647Z,1035
2018-02-25T09:05:59.471Z,1034.98
2018-02-25T09:07:08.300Z,1034.98
2018-02-25T09:08:17.118Z,1034.99
2018-02-25T09:09:25.944Z,1034.99
2018-02-25T09:10:34.919Z,1035.01
2018-02-25T09:11:43.743Z,1035.02
2018-02-25T09:12:52.568Z,1035.04
2018-02-25T09:14:01.400Z,1035.09
2018-02-25T09:15:10.250Z,1034.99
2018-02-25T09:16:19.356Z,1034.96
2018-02-25T09:17:28.456Z,1034.97
2018-02-25T09:18:37.280Z,1035
2018-02-25T09:19:46.105Z,1034.97
2018-02-25T09:20:54.929Z,1034.96
2018-02-25T09:22:03.757Z,1034.95
2018-02-25T09:23:12.575Z,1034.92
2018-02-25T09:24:21.400Z,1034.89
2018-02-25T09:25:30.222Z,1034.93
2018-02-25T09:26:39.045Z,1034.93
2018-02-25T09:27:48.273Z,1034.92
2018-02-25T09:28:57.099Z,1034.9
2018-02-25T09:30:06.218Z,1034.91
2018-02-25T09:31:15.027Z,1034.9
2018-02-25T09:32:23.847Z,1034.91
2018-02-25T09:33:32.669Z,1034.87
2018-02-25T09:34:41.494Z,1034.84
2018-02-25T09:35:50.324Z,1034.89
2018-02-25T09:36:59.149Z,1034.87
2018-02-25T09:38:07.979Z,1034.88
2018-02-25T09:39:16.806Z,1034.81
2018-02-25T09:40:25.629Z,1034.82
2018-02-25T09:41:34.453Z,1034.83
2018-02-25T09:42:43.276Z,1034.8
2018-02-25T09:43:52.152Z,1034.8
2018-02-25T09:45:01.127Z,1034.83
2018-02-25T09:46:09.950Z,1034.8
2018-02-25T09:47:18.776Z,1034.81
2018-02-25T09:48:27.604Z,1034.79
2018-02-25T09:49:36.430Z,1034.74
2018-02-25T09:50:45.417Z,1034.78
2018-02-25T09:51:54.252Z,1034.73
2018-02-25T09:53:03.087Z,1034.76
2018-02-25T09:54:11.909Z,1034.8
2018-02-25T09:55:20.736Z,1034.78
2018-02-25T09:56:29.663Z,1034.82
2018-02-25T09:57:38.492Z,1034.69
2018-02-25T09:58:47.319Z,1034.74
2018-02-25T09:59:56.142Z,1034.69
2018-02-25T10:01:04.973Z,1034.69
2018-02-25T10:02:14.076Z,1034.66
2018-02-25T10:03:22.901Z,1034.68
2018-02-25T10:04:31.732Z,1034.71
2018-02-25T10:05:40.554Z,1034.65
2018-02-25T10:06:49.379Z,1034.71
2018-02-25T10:07:58.624Z,1034.69
2018-02-25T10:09:07.434Z,1034.71
2018-02-25T10:10:16.264Z,1034.68
2018-02-25T10:11:25.081Z,1034.68
2018-02-25T10:12:33.907Z,1034.64
2018-02-25T10:13:42.982Z,1034.66
2018-02-25T10:14:51.807Z,1034.67
2018-02-25T10:16:00.633Z,1034.64
2018-02-25T10:17:09.454Z,1034.65
2018-02-25T10:18:18.573Z,1034.62
2018-02-25T10:19:27.977Z,1034.7
2018-02-25T10:20:36.802Z,1034.62
2018-02-25T10:21:45.627Z,1034.64
2018-02-25T10:22:54.452Z,1034.61
2018-02-25T10:24:03.554Z,1034.67
2018-02-25T10:25:12.808Z,1034.6
2018-02-25T10:26:21.634Z,1034.58
2018-02-25T10:27:30.741Z,1034.59
2018-02-25T10:28:40.459Z,1034.55
2018-02-25T10:29:49.282Z,1034.54
2018-02-25T10:30:58.258Z,1034.51
2018-02-25T10:32:07.086Z,1034.51
2018-02-25T10:33:15.910Z,1034.43
2018-02-25T10:34:24.740Z,1034.49
2018-02-25T10:35:33.563Z,1034.5
2018-02-25T10:36:42.391Z,1034.45
2018-02-25T10:37:51.221Z,1034.45
2018-02-25T10:39:00.042Z,1034.42
2018-02-25T10:40:09.141Z,1034.37
2018-02-25T10:41:17.966Z,1034.38
2018-02-25T10:42:27.094Z,1034.35
2018-02-25T10:43:35.923Z,1034.34
2018-02-25T10:44:44.749Z,1034.26
2018-02-25T10:45:53.574Z,1034.27
2018-02-25T10:47:02.400Z,1034.24
2018-02-25T10:48:11.224Z,1034.27
2018-02-25T10:49:20.053Z,1034.28
2018-02-25T10:50:28.878Z,1034.27
2018-02-25T10:51:37.705Z,1034.3
2018-02-25T10:52:46.531Z,1034.3
2018-02-25T10:53:55.406Z,1034.32
2018-02-25T10:55:04.264Z,1034.26
2018-02-25T10:56:13.373Z,1034.23
2018-02-25T10:57:22.474Z,1034.21
2018-02-25T10:58:31.301Z,1034.24
2018-02-25T10:59:40.408Z,1034.22
2018-02-25T11:00:49.236Z,1034.24
2018-02-25T11:01:58.065Z,1034.22
2018-02-25T11:03:06.889Z,1034.19
2018-02-25T11:04:15.999Z,1034.2
2018-02-25T11:05:24.827Z,1034.13
2018-02-25T11:06:33.656Z,1034.19
2018-02-25T11:07:42.482Z,1034.09
2018-02-25T11:08:51.311Z,1034.13
2018-02-25T11:10:00.161Z,1034.15
2018-02-25T11:11:09.067Z,1034.14
2018-02-25T11:12:17.893Z,1034.05
2018-02-25T11:13:26.719Z,1034.03
2018-02-25T11:14:35.548Z,1034.02
2018-02-25T11:15:44.374Z,1034.06
2018-02-25T11:16:53.500Z,1034.09
2018-02-25T11:18:02.328Z,1034.01
2018-02-25T11:19:11.153Z,1034.03
2018-02-25T11:20:19.980Z,1034.03
2018-02-25T11:21:28.808Z,1034.03
2018-02-25T11:22:37.736Z,1034.08
2018-02-25T11:23:46.566Z,1034.03
2018-02-25T11:24:55.392Z,1034.02
2018-02-25T11:26:04.517Z,1033.97
2018-02-25T11:27:13.321Z,1033.99
2018-02-25T11:28:22.475Z,1034
2018-02-25T11:29:31.301Z,1033.99
2018-02-25T11:30:40.129Z,1033.97
2018-02-25T11:31:48.958Z,1033.97
2018-02-25T11:32:57.783Z,1033.93
2018-02-25T11:34:06.612Z,1033.89
2018-02-25T11:35:15.437Z,1033.92
2018-02-25T11:36:24.264Z,1033.86
2018-02-25T11:37:33.093Z,1033.87
2018-02-25T11:38:41.921Z,1033.81
2018-02-25T11:39:50.749Z,1033.85
2018-02-25T11:40:59.575Z,1033.89
2018-02-25T11:42:08.404Z,1033.81
2018-02-25T11:43:17.232Z,1033.82
2018-02-25T11:44:26.064Z,1033.83
2018-02-25T11:45:34.987Z,1033.77
2018-02-25T11:46:43.817Z,1033.78
2018-02-25T11:47:52.658Z,1033.75
2018-02-25T11:49:01.495Z,1033.68
2018-02-25T11:50:10.332Z,1033.64
2018-02-25T11:51:19.208Z,1033.65
2018-02-25T11:52:28.048Z,1033.65
2018-02-25T11:53:36.888Z,1033.68
2018-02-25T11:54:45.726Z,1033.69
2018-02-25T11:55:54.562Z,1033.67
2018-02-25T11:57:03.404Z,1033.71
2018-02-25T11:58:12.243Z,1033.7
2018-02-25T11:59:21.076Z,1033.63
2018-02-25T12:00:29.918Z,1033.67
2018-02-25T12:01:39.133Z,1033.62
2018-02-25T12:02:47.975Z,1033.69
2018-02-25T12:03:56.821Z,1033.73
2018-02-25T12:05:05.670Z,1033.69
2018-02-25T12:06:14.508Z,1033.69
2018-02-25T12:07:23.345Z,1033.65
2018-02-25T12:08:32.169Z,1033.69
2018-02-25T12:09:41.001Z,1033.67
2018-02-25T12:10:49.825Z,1033.63
2018-02-25T12:11:58.653Z,1033.68
2018-02-25T12:13:07.757Z,1033.65
2018-02-25T12:14:16.587Z,1033.7
2018-02-25T12:15:25.416Z,1033.68
2018-02-25T12:16:34.248Z,1033.68
2018-02-25T12:17:43.079Z,1033.69
2018-02-25T12:18:51.913Z,1033.64
2018-02-25T12:20:00.743Z,1033.63
2018-02-25T12:21:09.845Z,1033.67
2018-02-25T12:22:19.249Z,1033.66
2018-02-25T12:23:28.087Z,1033.61
2018-02-25T12:24:36.918Z,1033.61
2018-02-25T12:25:45.750Z,1033.55
2018-02-25T12:26:54.580Z,1033.61
2018-02-25T12:28:03.789Z,1033.58
2018-02-25T12:29:12.619Z,1033.54
2018-02-25T12:30:21.446Z,1033.56
2018-02-25T12:31:30.277Z,1033.55
2018-02-25T12:32:39.107Z,1033.59
2018-02-25T12:33:48.339Z,1033.56
2018-02-25T12:34:57.169Z,1033.52
2018-02-25T12:36:06.284Z,1033.52
2018-02-25T12:37:15.387Z,1033.51
2018-02-25T12:38:24.220Z,1033.56
2018-02-25T12:39:33.429Z,1033.56
2018-02-25T12:40:42.257Z,1033.54
2018-02-25T12:41:51.088Z,1033.54
2018-02-25T12:42:59.919Z,1033.59
2018-02-25T12:44:08.752Z,1033.54
2018-02-25T12:45:17.735Z,1033.54
2018-02-25T12:46:26.564Z,1033.51
2018-02-25T12:47:35.673Z,1033.53
2018-02-25T12:48:44.503Z,1033.53
2018-02-25T12:49:53.332Z,1033.51
2018-02-25T12:51:02.316Z,1033.51
2018-02-25T12:52:11.150Z,1033.51
2018-02-25T12:53:20.254Z,1033.49
2018-02-25T12:54:29.087Z,1033.48
2018-02-25T12:55:37.918Z,1033.43
2018-02-25T12:56:46.952Z,1033.45
2018-02-25T12:57:55.787Z,1033.43
2018-02-25T12:59:04.612Z,1033.42
2018-02-25T13:00:13.442Z,1033.43
2018-02-25T13:01:22.275Z,1033.35
2018-02-25T13:02:31.403Z,1033.42
2018-02-25T13:03:40.233Z,1033.41
2018-02-25T13:04:49.064Z,1033.33
2018-02-25T13:05:57.895Z,1033.35
2018-02-25T13:07:06.728Z,1033.34
2018-02-25T13:08:15.709Z,1033.31
2018-02-25T13:09:24.537Z,1033.29
2018-02-25T13:10:33.642Z,1033.32
2018-02-25T13:11:42.474Z,1033.34
2018-02-25T13:12:51.305Z,1033.32
2018-02-25T13:14:00.184Z,1033.3
2018-02-25T13:15:09.015Z,1033.28
2018-02-25T13:16:17.846Z,1033.33
2018-02-25T13:17:26.676Z,1033.27
2018-02-25T13:18:35.507Z,1033.26
2018-02-25T13:19:44.713Z,1033.24
2018-02-25T13:20:53.542Z,1033.19
2018-02-25T13:22:02.376Z,1033.25
2018-02-25T13:23:11.204Z,1033.21
2018-02-25T13:24:20.031Z,1033.17
2018-02-25T13:25:28.912Z,1033.25
2018-02-25T13:26:37.743Z,1033.21
2018-02-25T13:27:46.569Z,1033.2
2018-02-25T13:28:55.400Z,1033.2
2018-02-25T13:30:04.230Z,1033.21
2018-02-25T13:31:13.210Z,1033.23
2018-02-25T13:32:22.270Z,1033.22
2018-02-25T13:33:31.101Z,1033.15
2018-02-25T13:34:39.934Z,1033.16
2018-02-25T13:35:48.762Z,1033.14
2018-02-25T13:36:57.591Z,1033.13
2018-02-25T13:38:06.418Z,1033.11
2018-02-25T13:39:15.249Z,1033.08
2018-02-25T13:40:24.075Z,1033.07
2018-02-25T13:41:32.902Z,1033.08
2018-02-25T13:42:42.064Z,1033.07
2018-02-25T13:43:51.168Z,1033.07
2018-02-25T13:44:59.998Z,1033.01
2018-02-25T13:46:08.834Z,1033.01
2018-02-25T13:47:17.813Z,1033.04
2018-02-25T13:48:26.719Z,1033
2018-02-25T13:49:35.549Z,1032.97
2018-02-25T13:50:44.376Z,1032.96
2018-02-25T13:51:53.204Z,1032.98
2018-02-25T13:53:02.034Z,1032.98
2018-02-25T13:54:11.299Z,1033.02
2018-02-25T13:55:20.131Z,1033
2018-02-25T13:56:29.238Z,1033.01